createdAt,value
2024-03-24T00:02:01.294Z,10.67
2024-03-24T00:04:28.388Z,10.65
2024-03-24T00:06:55.187Z,10.63
2024-03-24T00:09:21.730Z,10.62
2024-03-24T00:11:48.978Z,10.59
2024-03-24T00:14:15.592Z,10.57
2024-03-24T00:16:42.071Z,10.55
2024-03-24T00:19:09.545Z,10.51
2024-03-24T00:21:36.332Z,10.49
2024-03-24T00:24:04.338Z,10.46
2024-03-24T00:26:31.940Z,10.44
2024-03-24T00:28:59.546Z,10.42
2024-03-24T00:31:26.189Z,10.38
2024-03-24T00:33:53.281Z,10.34
2024-03-24T00:36:19.860Z,10.31
2024-03-24T00:38:49.188Z,10.27
2024-03-24T00:41:15.918Z,10.24
2024-03-24T00:43:42.586Z,10.20
2024-03-24T00:46:10.261Z,10.15
2024-03-24T00:48:37.091Z,10.11
2024-03-24T00:51:03.795Z,10.08
2024-03-24T00:53:33.211Z,10.05
2024-03-24T00:55:59.962Z,10.02
2024-03-24T00:58:26.713Z,9.98
2024-03-24T01:00:55.472Z,9.96
2024-03-24T01:03:22.586Z,9.94
2024-03-24T01:05:49.904Z,9.91
2024-03-24T01:08:16.872Z,9.88
2024-03-24T01:10:43.506Z,9.85
2024-03-24T01:13:10.986Z,9.81
2024-03-24T01:15:42.516Z,9.78
2024-03-24T01:18:09.042Z,9.74
2024-03-24T01:20:36.366Z,9.71
2024-03-24T01:23:03.138Z,9.68
2024-03-24T01:25:31.256Z,9.66
2024-03-24T01:27:58.359Z,9.65
2024-03-24T01:30:25.243Z,9.62
2024-03-24T01:32:52.054Z,9.60
2024-03-24T01:35:18.837Z,9.58
2024-03-24T01:37:45.428Z,9.57
2024-03-24T01:40:15.242Z,9.56
2024-03-24T01:42:42.295Z,9.55
2024-03-24T01:45:09.284Z,9.53
2024-03-24T01:47:36.320Z,9.51
2024-03-24T01:50:04.805Z,9.49
2024-03-24T01:52:32.184Z,9.48
2024-03-24T01:54:58.849Z,9.45
2024-03-24T01:57:25.741Z,9.43
2024-03-24T01:59:52.870Z,9.41
2024-03-24T02:02:19.714Z,9.40
2024-03-24T02:04:50.832Z,9.39
2024-03-24T02:07:17.704Z,9.36
2024-03-24T02:09:46.094Z,9.33
2024-03-24T02:12:13.234Z,9.30
2024-03-24T02:14:40.077Z,9.27
2024-03-24T02:17:06.625Z,9.23
2024-03-24T02:19:33.887Z,9.21
2024-03-24T02:22:00.722Z,9.18
2024-03-24T02:24:27.357Z,9.17
2024-03-24T02:26:57.139Z,9.14
2024-03-24T02:29:24.014Z,9.11
2024-03-24T02:31:50.661Z,9.10
2024-03-24T02:34:17.599Z,9.07
2024-03-24T02:36:44.345Z,9.04
2024-03-24T02:39:11.601Z,9.01
2024-03-24T02:41:38.545Z,8.97
2024-03-24T02:44:05.393Z,8.95
2024-03-24T02:46:32.336Z,8.93
2024-03-24T02:48:59.132Z,8.91
2024-03-24T02:51:25.827Z,8.90
2024-03-24T02:53:53.072Z,8.88
2024-03-24T02:56:19.916Z,8.88
2024-03-24T02:58:46.458Z,8.85
2024-03-24T03:01:13.666Z,8.81
2024-03-24T03:03:45.268Z,8.78
2024-03-24T03:06:12.643Z,8.75
2024-03-24T03:08:39.877Z,8.72
2024-03-24T03:11:06.717Z,8.70
2024-03-24T03:13:33.565Z,8.66
2024-03-24T03:16:01.239Z,8.63
2024-03-24T03:18:28.185Z,8.61
2024-03-24T03:20:54.918Z,8.57
2024-03-24T03:23:21.974Z,8.53
2024-03-24T03:25:48.921Z,8.53
2024-03-24T03:28:15.565Z,8.50
2024-03-24T03:30:43.230Z,8.47
2024-03-24T03:33:10.172Z,8.44
2024-03-24T03:35:37.224Z,8.41
2024-03-24T03:38:04.579Z,8.38
2024-03-24T03:40:31.408Z,8.38
2024-03-24T03:42:58.728Z,8.36
2024-03-24T03:45:26.743Z,8.34
2024-03-24T03:47:53.380Z,8.34
2024-03-24T03:50:21.165Z,8.31
2024-03-24T03:52:51.061Z,8.29
2024-03-24T03:55:18.520Z,8.26
2024-03-24T03:57:45.468Z,8.21
2024-03-24T04:00:12.485Z,8.17
2024-03-24T04:02:41.142Z,8.14
2024-03-24T04:05:08.465Z,8.10
2024-03-24T04:07:35.201Z,8.08
2024-03-24T04:10:02.916Z,8.05
2024-03-24T04:12:30.123Z,8.03
2024-03-24T04:14:58.851Z,7.99
2024-03-24T04:17:27.002Z,7.96
2024-03-24T04:19:53.806Z,7.92
2024-03-24T04:22:20.581Z,7.88
2024-03-24T04:24:48.207Z,7.84
2024-03-24T04:27:15.462Z,7.82
2024-03-24T04:29:42.907Z,7.80
2024-03-24T04:32:09.991Z,7.79
2024-03-24T04:34:37.924Z,7.76
2024-03-24T04:37:06.247Z,7.75
2024-03-24T04:39:33.220Z,7.73
2024-03-24T04:42:00.862Z,7.72
2024-03-24T04:44:27.574Z,7.70
2024-03-24T04:46:54.236Z,7.69
2024-03-24T04:49:23.477Z,7.67
2024-03-24T04:51:49.993Z,7.66
2024-03-24T04:54:18.397Z,7.65
2024-03-24T04:56:46.021Z,7.64
2024-03-24T04:59:12.656Z,7.64
2024-03-24T05:01:40.118Z,7.63
2024-03-24T05:04:06.966Z,7.62
2024-03-24T05:06:34.521Z,7.61
2024-03-24T05:09:01.163Z,7.61
2024-03-24T05:11:27.810Z,7.60
2024-03-24T05:13:55.056Z,7.59
2024-03-24T05:16:21.799Z,7.56
2024-03-24T05:18:48.363Z,7.56
2024-03-24T05:21:15.609Z,7.55
2024-03-24T05:23:42.743Z,7.55
2024-03-24T05:26:10.203Z,7.54
2024-03-24T05:28:46.519Z,7.52
2024-03-24T05:31:21.311Z,7.52
2024-03-24T05:33:49.021Z,7.51
2024-03-24T05:36:15.815Z,7.50
2024-03-24T05:38:43.404Z,7.50
2024-03-24T05:41:10.939Z,7.48
2024-03-24T05:43:37.690Z,7.47
2024-03-24T05:46:07.096Z,7.44
2024-03-24T05:48:36.694Z,7.41
2024-03-24T05:51:05.514Z,7.39
2024-03-24T05:53:35.602Z,7.38
2024-03-24T05:56:02.340Z,7.37
2024-03-24T05:58:30.165Z,7.33
2024-03-24T06:00:56.996Z,7.27
2024-03-24T06:03:24.613Z,7.26
2024-03-24T06:05:51.664Z,7.27
2024-03-24T06:08:20.209Z,7.26
2024-03-24T06:10:48.637Z,7.26
2024-03-24T06:13:15.607Z,7.27
2024-03-24T06:15:42.954Z,7.26
2024-03-24T06:18:10.194Z,7.25
2024-03-24T06:20:40.110Z,7.24
2024-03-24T06:23:07.268Z,7.24
2024-03-24T06:25:34.102Z,7.24
2024-03-24T06:28:04.019Z,7.24
2024-03-24T06:30:31.051Z,7.22
2024-03-24T06:32:57.703Z,7.23
2024-03-24T06:35:25.233Z,7.25
2024-03-24T06:37:52.212Z,7.27
2024-03-24T06:40:19.191Z,7.31
2024-03-24T06:43:00.032Z,7.31
2024-03-24T06:45:31.490Z,7.33
2024-03-24T06:48:00.883Z,7.37
2024-03-24T06:50:27.895Z,7.40
2024-03-24T06:52:54.485Z,7.44
2024-03-24T06:55:21.748Z,7.45
2024-03-24T06:57:48.691Z,7.44
2024-03-24T07:00:18.703Z,7.43
2024-03-24T07:02:48.822Z,7.44
2024-03-24T07:05:15.764Z,7.41
2024-03-24T07:07:42.960Z,7.39
2024-03-24T07:10:10.534Z,7.37
2024-03-24T07:12:37.064Z,7.38
2024-03-24T07:15:04.554Z,7.39
2024-03-24T07:17:32.251Z,7.40
2024-03-24T07:19:59.542Z,7.45
2024-03-24T07:22:26.304Z,7.54
2024-03-24T07:24:52.772Z,7.56
2024-03-24T07:27:19.937Z,7.57
2024-03-24T07:29:46.791Z,7.62
2024-03-24T07:32:14.146Z,7.69
2024-03-24T07:34:42.309Z,7.75
2024-03-24T07:37:09.485Z,7.83
2024-03-24T07:39:37.156Z,7.95
2024-03-24T07:42:03.919Z,7.97
2024-03-24T07:44:31.261Z,7.99
2024-03-24T07:47:00.634Z,8.03
2024-03-24T07:49:27.374Z,8.09
2024-03-24T07:51:54.578Z,8.14
2024-03-24T07:54:21.413Z,8.24
2024-03-24T07:56:49.182Z,8.27
2024-03-24T07:59:18.192Z,8.28
2024-03-24T08:01:44.935Z,8.29
2024-03-24T08:04:12.019Z,8.36
2024-03-24T08:06:38.763Z,8.44
2024-03-24T08:09:05.400Z,8.49
2024-03-24T08:11:32.587Z,8.53
2024-03-24T08:13:59.604Z,8.61
2024-03-24T08:16:26.152Z,8.73
2024-03-24T08:18:53.726Z,8.81
2024-03-24T08:21:22.262Z,8.89
2024-03-24T08:23:49.316Z,8.95
2024-03-24T08:26:16.800Z,9.01
2024-03-24T08:28:44.380Z,9.07
2024-03-24T08:31:11.272Z,9.09
2024-03-24T08:33:37.941Z,9.11
2024-03-24T08:36:05.307Z,9.17
2024-03-24T08:38:32.796Z,9.18
2024-03-24T08:40:59.767Z,9.10
2024-03-24T08:43:26.597Z,9.08
2024-03-24T08:45:53.875Z,9.05
2024-03-24T08:48:24.616Z,9.00
2024-03-24T08:50:57.851Z,8.92
2024-03-24T08:53:24.673Z,8.86
2024-03-24T08:55:54.002Z,8.80
2024-03-24T08:58:22.958Z,8.81
2024-03-24T09:00:53.182Z,8.86
2024-03-24T09:03:20.979Z,8.88
2024-03-24T09:05:48.043Z,8.93
2024-03-24T09:08:14.754Z,8.93
2024-03-24T09:10:42.003Z,8.89
2024-03-24T09:13:09.158Z,8.88
2024-03-24T09:15:35.819Z,8.89
2024-03-24T09:18:04.052Z,8.88
2024-03-24T09:20:30.990Z,8.90
2024-03-24T09:22:58.697Z,8.90
2024-03-24T09:25:27.001Z,8.89
2024-03-24T09:27:53.785Z,8.91
2024-03-24T09:30:21.408Z,8.97
2024-03-24T09:32:48.324Z,9.00
2024-03-24T09:35:15.068Z,9.02
2024-03-24T09:37:42.321Z,9.07
2024-03-24T09:40:10.287Z,9.14
2024-03-24T09:42:37.032Z,9.19
2024-03-24T09:45:04.473Z,9.20
2024-03-24T09:47:32.904Z,9.23
2024-03-24T09:50:00.583Z,9.27
2024-03-24T09:52:33.633Z,9.33
2024-03-24T09:55:01.089Z,9.37
2024-03-24T09:57:30.115Z,9.38
2024-03-24T09:59:56.985Z,9.38
2024-03-24T10:02:27.069Z,9.39
2024-03-24T10:04:55.332Z,9.40
2024-03-24T10:07:22.406Z,9.39
2024-03-24T10:09:49.223Z,9.41
2024-03-24T10:12:16.811Z,9.42
2024-03-24T10:14:45.984Z,9.40
2024-03-24T10:17:18.849Z,9.40
2024-03-24T10:19:49.612Z,9.42
2024-03-24T10:22:16.886Z,9.44
2024-03-24T10:24:46.457Z,9.45
2024-03-24T10:27:13.931Z,9.46
2024-03-24T10:29:40.871Z,9.43
2024-03-24T10:32:23.570Z,9.37
2024-03-24T10:34:55.396Z,9.35
2024-03-24T10:37:22.529Z,9.36
2024-03-24T10:39:49.133Z,9.40
2024-03-24T10:42:16.842Z,9.40
2024-03-24T10:44:43.744Z,9.42
2024-03-24T10:47:10.589Z,9.49
2024-03-24T10:49:37.482Z,9.61
2024-03-24T10:52:04.933Z,9.72
2024-03-24T10:54:33.098Z,9.75
2024-03-24T10:57:02.471Z,9.71
2024-03-24T10:59:29.700Z,9.64
2024-03-24T11:01:56.674Z,9.58
2024-03-24T11:04:23.430Z,9.52
2024-03-24T11:06:50.532Z,9.48
2024-03-24T11:09:17.420Z,9.50
2024-03-24T11:11:44.153Z,9.53
2024-03-24T11:14:12.734Z,9.57
2024-03-24T11:16:39.579Z,9.60
2024-03-24T11:19:07.370Z,9.62
2024-03-24T11:21:40.290Z,9.65
2024-03-24T11:24:07.843Z,9.65
2024-03-24T11:26:34.955Z,9.65
2024-03-24T11:29:02.163Z,9.68
2024-03-24T11:31:33.386Z,9.69
2024-03-24T11:34:00.427Z,9.69
2024-03-24T11:36:27.354Z,9.69
2024-03-24T11:38:54.232Z,9.73
2024-03-24T11:41:26.372Z,9.77
2024-03-24T11:43:59.355Z,9.85
2024-03-24T11:46:32.811Z,9.94
2024-03-24T11:48:59.822Z,10.02
2024-03-24T11:51:26.878Z,10.03
2024-03-24T11:53:55.110Z,10.02
2024-03-24T11:56:22.501Z,10.02
2024-03-24T11:58:49.643Z,10.02
2024-03-24T12:01:17.344Z,10.06
2024-03-24T12:03:44.998Z,10.12
2024-03-24T12:06:13.530Z,10.13
2024-03-24T12:08:41.163Z,10.08
2024-03-24T12:11:08.338Z,10.03
2024-03-24T12:13:35.984Z,9.98
2024-03-24T12:16:03.322Z,9.96
2024-03-24T12:18:30.246Z,9.95
2024-03-24T12:21:00.299Z,9.94
2024-03-24T12:23:27.210Z,9.90
2024-03-24T12:25:54.090Z,9.85
2024-03-24T12:28:21.511Z,9.76
2024-03-24T12:30:49.189Z,9.63
2024-03-24T12:33:17.752Z,9.55
2024-03-24T12:35:45.351Z,9.52
2024-03-24T12:38:12.711Z,9.46
2024-03-24T12:40:39.507Z,9.39
2024-03-24T12:43:13.023Z,9.32
2024-03-24T12:45:57.361Z,9.27
2024-03-24T12:48:29.263Z,9.23
2024-03-24T12:50:57.628Z,9.22
2024-03-24T12:53:39.582Z,9.19
2024-03-24T12:56:07.071Z,9.15
2024-03-24T12:58:37.849Z,9.13
2024-03-24T13:01:05.256Z,9.10
2024-03-24T13:03:33.637Z,9.09
2024-03-24T13:06:02.252Z,9.06
2024-03-24T13:08:31.678Z,9.01
2024-03-24T13:10:58.862Z,8.99
2024-03-24T13:13:30.266Z,8.95
2024-03-24T13:16:00.058Z,8.93
2024-03-24T13:18:29.673Z,8.88
2024-03-24T13:20:56.712Z,8.82
2024-03-24T13:23:24.088Z,8.77
2024-03-24T13:25:53.395Z,8.71
2024-03-24T13:28:20.580Z,8.64
2024-03-24T13:30:47.841Z,8.47
2024-03-24T13:33:21.282Z,8.15
2024-03-24T13:35:48.330Z,7.84
2024-03-24T13:38:21.715Z,7.55
2024-03-24T13:40:48.982Z,7.30
2024-03-24T13:43:20.678Z,7.03
2024-03-24T13:46:06.783Z,6.88
2024-03-24T13:48:33.570Z,6.69
2024-03-24T13:51:01.575Z,6.61
2024-03-24T13:53:28.769Z,6.52
2024-03-24T13:55:57.423Z,6.39
2024-03-24T13:58:24.904Z,6.28
2024-03-24T14:00:51.639Z,6.18
2024-03-24T14:03:18.513Z,6.15
2024-03-24T14:05:45.851Z,6.09
2024-03-24T14:08:12.693Z,6.04
2024-03-24T14:10:42.247Z,5.97
2024-03-24T14:13:11.765Z,5.91
2024-03-24T14:15:57.401Z,5.91
2024-03-24T14:18:56.704Z,5.91
2024-03-24T14:21:43.723Z,5.85
2024-03-24T14:24:18.382Z,5.92
2024-03-24T14:26:46.442Z,5.92
2024-03-24T14:29:13.402Z,5.90
2024-03-24T14:31:40.134Z,5.86
2024-03-24T14:34:07.451Z,5.81
2024-03-24T14:36:46.994Z,5.79
2024-03-24T14:39:15.284Z,5.73
2024-03-24T14:41:47.261Z,5.67
2024-03-24T14:44:19.356Z,5.67
2024-03-24T14:46:52.236Z,5.67
2024-03-24T14:49:19.331Z,5.64
2024-03-24T14:51:46.491Z,5.60
2024-03-24T14:54:13.363Z,5.58
2024-03-24T14:56:41.703Z,5.57
2024-03-24T14:59:09.308Z,5.59
2024-03-24T15:01:36.422Z,5.58
2024-03-24T15:04:03.516Z,5.57
2024-03-24T15:06:30.674Z,5.56
2024-03-24T15:08:59.395Z,5.57
2024-03-24T15:11:26.296Z,5.59
2024-03-24T15:13:53.174Z,5.58
2024-03-24T15:16:19.902Z,5.62
2024-03-24T15:18:46.886Z,5.65
2024-03-24T15:21:13.708Z,5.67
2024-03-24T15:23:42.379Z,5.67
2024-03-24T15:26:09.204Z,5.68
2024-03-24T15:28:35.849Z,5.67
2024-03-24T15:31:02.929Z,5.62
2024-03-24T15:33:30.681Z,5.54
2024-03-24T15:35:57.499Z,5.51
2024-03-24T15:38:24.727Z,5.45
2024-03-24T15:40:51.615Z,5.41
2024-03-24T15:43:21.960Z,5.38
2024-03-24T15:45:49.635Z,5.29
2024-03-24T15:48:16.940Z,5.22
2024-03-24T15:50:45.507Z,5.19
2024-03-24T15:53:14.348Z,5.18
2024-03-24T15:56:00.135Z,5.15
2024-03-24T15:58:47.701Z,5.09
2024-03-24T16:01:33.984Z,5.00
2024-03-24T16:04:02.955Z,4.92
2024-03-24T16:06:31.154Z,4.92
2024-03-24T16:08:58.083Z,4.96
2024-03-24T16:11:27.270Z,5.00
2024-03-24T16:13:55.602Z,5.01
2024-03-24T16:16:22.401Z,5.02
2024-03-24T16:18:49.719Z,5.04
2024-03-24T16:21:25.770Z,5.06
2024-03-24T16:23:52.415Z,5.08
2024-03-24T16:26:19.760Z,5.06
2024-03-24T16:28:48.031Z,5.04
2024-03-24T16:31:15.106Z,5.01
2024-03-24T16:33:42.044Z,4.99
2024-03-24T16:36:08.881Z,4.98
2024-03-24T16:38:35.907Z,5.00
2024-03-24T16:41:03.433Z,4.98
2024-03-24T16:43:30.201Z,4.94
2024-03-24T16:45:57.154Z,4.96
2024-03-24T16:48:23.973Z,4.97
2024-03-24T16:50:50.734Z,4.96
2024-03-24T16:53:17.851Z,4.96
2024-03-24T16:55:45.995Z,4.98
2024-03-24T16:58:18.032Z,4.98
2024-03-24T17:00:44.928Z,4.97
2024-03-24T17:03:11.570Z,4.90
2024-03-24T17:05:40.907Z,4.91
2024-03-24T17:08:07.676Z,4.94
2024-03-24T17:10:35.689Z,4.96
2024-03-24T17:13:03.965Z,4.97
2024-03-24T17:15:30.806Z,5.01
2024-03-24T17:17:57.734Z,4.98
2024-03-24T17:20:25.387Z,4.98
2024-03-24T17:22:52.099Z,4.95
2024-03-24T17:25:19.666Z,4.93
2024-03-24T17:27:46.452Z,4.94
2024-03-24T17:30:13.315Z,4.94
2024-03-24T17:32:40.558Z,4.94
2024-03-24T17:35:07.617Z,4.91
2024-03-24T17:37:34.528Z,4.89
2024-03-24T17:40:01.528Z,4.85
2024-03-24T17:42:28.213Z,4.85
2024-03-24T17:44:56.317Z,4.85
2024-03-24T17:47:23.180Z,4.86
2024-03-24T17:49:50.151Z,4.84
2024-03-24T17:52:17.165Z,4.84
2024-03-24T17:54:43.778Z,4.83
2024-03-24T17:57:11.187Z,4.81
2024-03-24T17:59:38.018Z,4.80
2024-03-24T18:02:07.483Z,4.78
2024-03-24T18:04:34.705Z,4.79
2024-03-24T18:07:20.485Z,4.78
2024-03-24T18:10:05.992Z,4.75
2024-03-24T18:12:33.353Z,4.78
2024-03-24T18:15:00.323Z,4.78
2024-03-24T18:17:27.146Z,4.77
2024-03-24T18:19:54.146Z,4.79
2024-03-24T18:22:21.255Z,4.80
2024-03-24T18:24:47.880Z,4.78
2024-03-24T18:27:15.038Z,4.79
2024-03-24T18:29:41.843Z,4.81
2024-03-24T18:32:08.626Z,4.83
2024-03-24T18:34:35.784Z,4.83
2024-03-24T18:37:03.021Z,4.83
2024-03-24T18:39:30.505Z,4.84
2024-03-24T18:41:57.277Z,4.84
2024-03-24T18:44:24.781Z,4.84
2024-03-24T18:46:52.934Z,4.82
2024-03-24T18:49:19.744Z,4.81
2024-03-24T18:51:46.475Z,4.80
2024-03-24T18:54:13.800Z,4.78
2024-03-24T18:56:40.698Z,4.76
2024-03-24T18:59:08.076Z,4.76
2024-03-24T19:01:35.123Z,4.77
2024-03-24T19:04:05.485Z,4.76
2024-03-24T19:06:33.295Z,4.76
2024-03-24T19:09:00.366Z,4.76
2024-03-24T19:11:27.088Z,4.77
2024-03-24T19:13:54.485Z,4.77
2024-03-24T19:16:22.754Z,4.78
2024-03-24T19:18:54.006Z,4.77
2024-03-24T19:21:20.697Z,4.74
2024-03-24T19:23:47.410Z,4.72
2024-03-24T19:26:14.478Z,4.73
2024-03-24T19:28:41.411Z,4.74
2024-03-24T19:31:09.235Z,4.75
2024-03-24T19:33:36.189Z,4.75
2024-03-24T19:36:03.503Z,4.75
2024-03-24T19:38:30.934Z,4.73
2024-03-24T19:40:58.716Z,4.73
2024-03-24T19:43:25.440Z,4.71
2024-03-24T19:45:52.846Z,4.70
2024-03-24T19:48:20.164Z,4.69
2024-03-24T19:50:47.618Z,4.70
2024-03-24T19:53:14.630Z,4.71
2024-03-24T19:55:41.372Z,4.73
2024-03-24T19:58:08.947Z,4.71
2024-03-24T20:00:35.877Z,4.72
2024-03-24T20:03:02.877Z,4.71
2024-03-24T20:05:30.262Z,4.73
2024-03-24T20:07:57.133Z,4.74
2024-03-24T20:10:24.678Z,4.73
2024-03-24T20:12:51.577Z,4.71
2024-03-24T20:15:18.651Z,4.72
2024-03-24T20:17:46.558Z,4.74
2024-03-24T20:20:13.416Z,4.75
2024-03-24T20:22:40.682Z,4.76
2024-03-24T20:25:07.676Z,4.74
2024-03-24T20:27:35.226Z,4.69
2024-03-24T20:30:02.638Z,4.64
2024-03-24T20:32:29.807Z,4.63
2024-03-24T20:34:56.504Z,4.63
2024-03-24T20:37:23.688Z,4.60
2024-03-24T20:39:50.611Z,4.57
2024-03-24T20:42:17.240Z,4.55
2024-03-24T20:44:44.565Z,4.51
2024-03-24T20:47:11.402Z,4.48
2024-03-24T20:49:38.071Z,4.48
2024-03-24T20:52:05.863Z,4.48
2024-03-24T20:54:32.832Z,4.47
2024-03-24T20:56:59.844Z,4.48
2024-03-24T20:59:26.554Z,4.47
2024-03-24T21:01:53.231Z,4.47
2024-03-24T21:04:20.415Z,4.46
2024-03-24T21:06:47.276Z,4.44
2024-03-24T21:09:16.540Z,4.43
2024-03-24T21:11:43.404Z,4.42
2024-03-24T21:14:10.096Z,4.40
2024-03-24T21:16:37.699Z,4.40
2024-03-24T21:19:04.548Z,4.40
2024-03-24T21:21:33.809Z,4.39
2024-03-24T21:24:03.759Z,4.35
2024-03-24T21:26:30.821Z,4.30
2024-03-24T21:28:57.691Z,4.27
2024-03-24T21:31:24.747Z,4.23
2024-03-24T21:33:51.650Z,4.21
2024-03-24T21:36:18.965Z,4.19
2024-03-24T21:39:04.633Z,4.17
2024-03-24T21:41:50.522Z,4.16
2024-03-24T21:44:17.533Z,4.14
2024-03-24T21:46:46.247Z,4.10
2024-03-24T21:49:13.247Z,4.08
2024-03-24T21:51:39.947Z,4.08
2024-03-24T21:54:06.494Z,4.07
2024-03-24T21:56:33.779Z,4.06
2024-03-24T21:59:00.421Z,4.04
2024-03-24T22:01:27.597Z,4.03
2024-03-24T22:03:54.332Z,4.03
2024-03-24T22:06:21.761Z,4.02
2024-03-24T22:08:48.655Z,4.00
2024-03-24T22:11:15.299Z,3.98
2024-03-24T22:13:43.421Z,3.96
2024-03-24T22:16:10.025Z,3.94
2024-03-24T22:18:36.623Z,3.92
2024-03-24T22:21:03.747Z,3.91
2024-03-24T22:23:32.297Z,3.89
2024-03-24T22:25:59.438Z,3.90
2024-03-24T22:28:26.610Z,3.91
2024-03-24T22:30:53.673Z,3.93
2024-03-24T22:33:20.265Z,3.94
2024-03-24T22:35:47.212Z,3.96
2024-03-24T22:38:13.899Z,3.97
2024-03-24T22:40:40.667Z,3.98
2024-03-24T22:43:07.526Z,3.98
2024-03-24T22:45:35.251Z,3.99
2024-03-24T22:48:02.690Z,4.01
2024-03-24T22:50:29.661Z,4.03
2024-03-24T22:52:56.135Z,4.05
2024-03-24T22:55:23.068Z,4.07
2024-03-24T22:57:49.873Z,4.08
2024-03-24T23:00:21.758Z,4.08
2024-03-24T23:02:48.911Z,4.07
2024-03-24T23:05:15.607Z,4.07
2024-03-24T23:07:43.227Z,4.06
2024-03-24T23:10:10.591Z,4.04
2024-03-24T23:12:37.367Z,4.03
2024-03-24T23:15:04.882Z,4.00
2024-03-24T23:17:31.956Z,3.99
2024-03-24T23:19:58.753Z,3.97
2024-03-24T23:22:25.917Z,3.93
2024-03-24T23:24:52.357Z,3.92
2024-03-24T23:27:19.147Z,3.91
2024-03-24T23:29:45.694Z,3.89
2024-03-24T23:32:12.075Z,3.87
2024-03-24T23:34:39.973Z,3.86
2024-03-24T23:37:06.784Z,3.85
2024-03-24T23:39:33.210Z,3.83
2024-03-24T23:42:00.241Z,3.82
2024-03-24T23:44:26.787Z,3.81
2024-03-24T23:46:54.302Z,3.81
2024-03-24T23:49:21.140Z,3.79
2024-03-24T23:51:47.672Z,3.78
2024-03-24T23:54:14.663Z,3.74
2024-03-24T23:56:41.250Z,3.73
2024-03-24T23:59:07.854Z,3.70
